This is the latest recevied weather packets stored in our database for station/object JF7BTK-10. If no packets are shown the sender has not sent any weather packets the latest 10 day(s).
| Time | Temp. | Humidity | Pressure | Rain* | Wind** | Luminosity | Snow |
|---|---|---|---|---|---|---|---|
| 1777587232 | 13.89° C | 58% | 1004.8 hPa | 0 mm | - | - | - |
| 1777586332 | 12.78° C | 55% | 1005 hPa | 0 mm | - | - | - |
| 1777585432 | 12.78° C | 60% | 1005.1 hPa | 0 mm | - | - | - |
| 1777584532 | 10.56° C | 70% | 1005.5 hPa | 0 mm | - | - | - |
| 1777583632 | 8.89° C | 74% | 1005.7 hPa | 0 mm | - | - | - |
| 1777582732 | 6.11° C | 81% | 1006.1 hPa | 0 mm | - | - | - |
| 1777581832 | 5° C | 80% | 1006.6 hPa | 0 mm | - | - | - |
| 1777580932 | 5.56° C | 80% | 1007.2 hPa | 0 mm | - | - | - |
| 1777580032 | 4.44° C | 79% | 1007.1 hPa | 0 mm | - | - | - |
| 1777579132 | 4.44° C | 77% | 1007.5 hPa | 0 mm | - | - | - |
| 1777578232 | 5° C | 77% | 1007.4 hPa | 0 mm | - | - | - |
| 1777577333 | 5° C | 75% | 1007.5 hPa | 0 mm | - | - | - |
| 1777576433 | 4.44° C | 72% | 1007.7 hPa | 0 mm | - | - | - |
| 1777575533 | 5° C | 72% | 1008.1 hPa | 0 mm | - | - | - |
| 1777574632 | 5.56° C | 75% | 1008 hPa | 0 mm | - | - | - |
| 1777573733 | 5° C | 74% | 1008.4 hPa | 0 mm | - | - | - |
| 1777572833 | 5° C | 72% | 1008.9 hPa | 0 mm | - | - | - |
| 1777571933 | 5° C | 72% | 1008.9 hPa | 0 mm | - | - | - |
| 1777571033 | 5° C | 72% | 1008.4 hPa | 0 mm | - | - | - |
| 1777570132 | 5° C | 72% | 1008.7 hPa | 0 mm | - | - | - |
| 1777569232 | 5° C | 72% | 1009.1 hPa | 0 mm | - | - | - |
| 1777568334 | 5° C | 73% | 1009.3 hPa | 0 mm | - | - | - |
| 1777567434 | 5.56° C | 72% | 1009.4 hPa | 0 mm | - | - | - |
| 1777566532 | 6.11° C | 73% | 1009.7 hPa | 0 mm | - | - | - |
| 1777565632 | 6.67° C | 73% | 1009.9 hPa | 0 mm | - | - | - |
* Rain latest hour (hover to see other rain measurements)
** Current wind speed in m/s (hover to see current wind gust speed)